Terminal Aerodrome Forecast
Issued by NWS

Home | Current Version | Previous Version | Text Only | Print | Product List | Glossary On
Versions: 1 2 3 4 5 6 7 8 9 10 11 12 13 14
000
FTUS45 KABQ 302320
TAFAEG
TAF
KAEG 302320Z 3100/3124 24010G20KT P6SM SCT100
     FM310200 22011KT P6SM BKN200
     FM311500 19015G25KT P6SM SCT150
     FM311800 22025G35KT P6SM BKN120=

USA.gov is the U.S. government's official web portal to all federal, state and local government web resources and services.